Nathaniel B. Palmer — WBP3210 — position and weather

sailwx.info

Track history (hours):
 
Tides and Currents Weather Stations Pressure Air Temp Water Temp Dewpoint Dewpoint Depression Visibility Wind Speed Wind Dir Waves Ship Positions

Oceanographic research ship Nathaniel B. Palmer (USA)

Contact: Ethan Norris, ethan.norris.contractor@usap.gov

Detailed information on ship capabilities available from University of Delaware's Ocean Information Center and ARCUS's ALIAS (Arctic Logistics Information and Support) project.

Owner: OFFSHORE SERVICE VESSELS, GALLIANO, LA. More information available from US FCC via Universal Licensing System and Coast Guard Vessel Documentation Center.

Last reported at 2014-Dec-18 20:00 UTC. Time now 2014-Dec-18 22:23 UTC.
Position S 64°48' W 063°18'.

Type: Other ship. MMSI: 366610000.

Wind from 300 at 4 knots

Barometer 981.6 mb
Air temperature 1.3 ° C
Water temperature 0.5 ° C

Date/timePositionNaut miles runAvg speedWind from/ knotsBaromVisibWave heightAir tempDewpointWater temp
2014-Dec-18 20:00S 64°48' W 063°18'10 4.9 300 / 4981.6 1.3 0.5
2014-Dec-18 18:00S 64°42' W 063°36'3 1.3 270 / 5981.4 -0.2 0.7
2014-Dec-18 16:00S 64°42' W 063°42'7 1.6 350 / 3981.4 -0.6 0.5
2014-Dec-18 12:00S 64°48' W 063°36'0 0.0 350 / 5980.8 -0.8 1.0
2014-Dec-18 10:00S 64°48' W 063°36'0 0.0 260 / 3980.9 -1.4 1.1
2014-Dec-18 08:00S 64°48' W 063°36'0 0.0 160 / 1980.9 -1.0 1.0
2014-Dec-18 04:00S 64°48' W 063°36'0 0.0 040 / 3981.2 -1.2 1.1
2014-Dec-18 02:00S 64°48' W 063°36'3 1.3 210 / 5981.7 -1.0 1.0
2014-Dec-18 00:00S 64°48' W 063°30'8 3.9 300 / 6981.9 -0.8 1.2
2014-Dec-17 22:00S 64°54' W 063°42'7 3.3 280 / 6982.0 -0.6 0.7
2014-Dec-17 20:00S 64°48' W 063°36'10 4.9 300 / 7981.9 -0.9 0.8
2014-Dec-17 18:00S 64°42' W 063°54'8 3.9 240 / 7981.9 -0.2 1.3
2014-Dec-17 16:00S 64°48' W 064°06'3 1.3 350 / 11981.9 -1.0 1.0
2014-Dec-17 14:00S 64°48' W 064°12'5 2.6 250 / 11981.7 -0.6 1.3
2014-Dec-17 12:00S 64°48' W 064°24'15 7.7 240 / 10982.0 -0.9 1.3
2014-Dec-17 10:00S 64°48' W 065°00'6 3.0 280 / 15981.8 -0.5 0.6
2014-Dec-17 08:00S 64°42' W 065°00'22 5.5 220 / 11981.9 -0.2 0.7
2014-Dec-17 04:00S 65°00' W 065°30'10 4.8 250 / 7981.9 -0.4 0.4
2014-Dec-17 02:00S 65°06' W 065°48'14 7.1 220 / 5982.2 -0.4 0.6
2014-Dec-17 00:00S 65°18' W 066°06'16 7.8 250 / 9982.4 -0.4 0.5
2014-Dec-16 22:00S 65°30' W 066°30'23 5.8 300 / 5982.5 -0.6 1.3
2014-Dec-16 18:00S 65°48' W 067°06'111 6.1 090 / 5983.0 -0.7 1.2
2014-Dec-16 00:00S 67°24' W 069°24'6 3.0 010 / 19979.5 -0.7 1.8
2014-Dec-15 22:00S 67°18' W 069°24'13 6.4 020 / 22978.5 -0.2 1.8
2014-Dec-15 20:00S 67°06' W 069°12'14 7.0 020 / 23977.8 -0.6 1.8
2014-Dec-15 18:00S 66°54' W 068°54'9 4.6 020 / 21976.9 -0.7 1.8
2014-Dec-15 16:00S 66°48' W 068°36'28 7.0 010 / 20976.0 -0.8 1.8
2014-Dec-15 12:00S 66°24' W 068°00'12 6.0 020 / 15975.7 -1.0 1.8
2014-Dec-15 10:00S 66°24' W 067°30'11 5.7 360 / 17975.1 -1.2 1.7
2014-Dec-15 08:00S 66°30' W 067°06'19 2.4 050 / 27974.3 -1.3 1.7
2014-Dec-15 00:00S 66°48' W 066°48'2 1.2 360 / 14977.8 -0.4 1.7
2014-Dec-14 22:00S 66°48' W 066°42'0 0.0 340 / 3979.1 -1.6 1.3
2014-Dec-14 20:00S 66°48' W 066°42'0 0.0 200 / 12979.6 -2.5 1.4
2014-Dec-14 18:00S 66°48' W 066°42'0 0.0 130 / 9980.1 -2.0 1.4
2014-Dec-14 16:00S 66°48' W 066°42'0 0.0 200 / 5980.8 -2.0 1.2
2014-Dec-14 14:00S 66°48' W 066°42'0 0.0 180 / 11981.6 -2.5 1.6
2014-Dec-14 12:00S 66°48' W 066°42'0 0.0 210 / 4982.4 -0.6 1.5
2014-Dec-14 10:00S 66°48' W 066°42'6 3.2 340 / 8982.7 -0.8 1.4
2014-Dec-14 08:00S 66°42' W 066°48'15 3.8 010 / 18983.3 -1.4 1.4
2014-Dec-14 04:00S 66°30' W 067°12'8 3.8 050 / 13984.8 -1.9 1.5
2014-Dec-14 02:00S 66°24' W 067°00'14 7.0 020 / 12986.0 -2.1 1.7
2014-Dec-14 00:00S 66°12' W 066°42'94 3.9 040 / 7986.5 -1.0 1.6
2014-Dec-13 00:00S 65°06' W 064°00'6 3.0 220 / 10984.1 -2.2 1.5
2014-Dec-12 22:00S 65°00' W 064°00'10 4.8 230 / 17983.6 -1.6 1.4
2014-Dec-12 20:00S 64°54' W 063°42'10 5.1 240 / 21981.2 -0.3 0.6
2014-Dec-12 18:00S 64°54' W 063°18'5 2.5 290 / 12979.5 -0.1 0.3
2014-Dec-12 16:00S 64°54' W 063°06'3 1.3 310 / 10978.6 -0.2 1.0
2014-Dec-12 14:00S 64°54' W 063°12'0 0.0 050 / 4977.3 0.2 0.5
2014-Dec-12 08:00S 64°54' W 063°12'3 0.6 150 / 6973.6 -0.5 0.1
2014-Dec-12 04:00S 64°54' W 063°06'0 0.0 300 / 9970.6 -0.7 0.6
2014-Dec-12 02:00S 64°54' W 063°06'0 0.0 110 / 5969.3 -0.0 0.6
2014-Dec-12 00:00S 64°54' W 063°06'3 1.3 310 / 10967.5 -0.0 1.2
2014-Dec-11 22:00S 64°54' W 063°12'16 3.9 310 / 14965.8 -0.6 1.2
2014-Dec-11 18:00S 64°42' W 062°48'7 3.3 100 / 3963.2 1.4 0.9
2014-Dec-11 16:00S 64°36' W 062°54'3 1.3 190 / 11962.3 0.5 0.2
2014-Dec-11 14:00S 64°36' W 062°48'10 4.9 340 / 14961.3 -1.3 0.3
2014-Dec-11 12:00S 64°42' W 062°30'0 0.0 360 / 3960.8 0.5 0.4
2014-Dec-11 02:00S 64°42' W 062°30'3 1.3 320 / 5964.5 -1.0 0.5
2014-Dec-11 00:00S 64°42' W 062°36'6 3.0 230 / 4965.2 -0.7 0.6
2014-Dec-10 22:00S 64°36' W 062°36'6 3.0 250 / 6966.0 -0.1 0.3
2014-Dec-10 20:00S 64°42' W 062°36'3 0.3 110 / 2966.3 1.3 0.3
2014-Dec-10 12:00S 64°42' W 062°30'0 0.0 250 / 1966.5 0.4 0.3
2014-Dec-10 10:00S 64°42' W 062°30'0 0.0 090 / 5968.6 -0.3 0.2
2014-Dec-10 08:00S 64°42' W 062°30'0 0.0 170 / 10971.0 0.2 0.1
2014-Dec-10 00:00S 64°42' W 062°30'6 3.0 160 / 5981.2 -0.2 0.4
2014-Dec-09 22:00S 64°36' W 062°30'13 6.5 982.5 -0.1 0.2
2014-Dec-09 20:00S 64°24' W 062°18'5 2.6 160 / 18982.8 -0.1 -0.0
2014-Dec-09 18:00S 64°24' W 062°06'12 6.0 250 / 14981.7 0.1 0.8
2014-Dec-09 16:00S 64°36' W 062°06'6 3.0 170 / 6981.5 1.1 0.9
2014-Dec-09 14:00S 64°30' W 062°06'6 3.0 190 / 11980.9 1.0 0.8
2014-Dec-09 12:00S 64°36' W 062°06'0 0.0 130 / 20980.1 1.3 1.2
2014-Dec-09 10:00S 64°36' W 062°06'0 0.0 240 / 3980.5 0.6 0.9
2014-Dec-09 08:00S 64°36' W 062°06'0 0.0 100 / 6979.8 0.2 0.8
2014-Dec-09 02:00S 64°36' W 062°06'0 0.0 130 / 6979.2 0.3 1.0
2014-Dec-09 00:00S 64°36' W 062°06'0 0.0 290 / 3979.0 0.3 0.9
2014-Dec-08 22:00S 64°36' W 062°06'6 3.0 250 / 2978.6 0.6 1.1
2014-Dec-08 20:00S 64°30' W 062°06'   010 / 2978.2 0.6 0.7
Track history (hours):
 
Tides and Currents Weather Stations Pressure Air Temp Water Temp Dewpoint Dewpoint Depression Visibility Wind Speed Wind Dir Waves Ship Positions

Oceanographic research ship Nathaniel B. Palmer (USA)

Contact: Ethan Norris, ethan.norris.contractor@usap.gov

Detailed information on ship capabilities available from University of Delaware's Ocean Information Center and ARCUS's ALIAS (Arctic Logistics Information and Support) project.

Owner: OFFSHORE SERVICE VESSELS, GALLIANO, LA. More information available from US FCC via Universal Licensing System and Coast Guard Vessel Documentation Center.

Last reported at 2014-Dec-18 20:00 UTC. Time now 2014-Dec-18 22:23 UTC.
Position S 64°48' W 063°18'.

Type: Other ship. MMSI: 366610000.

Wind from 300 at 4 knots

Barometer 981.6 mb
Air temperature 1.3 ° C
Water temperature 0.5 ° C

Date/timePositionNaut miles runAvg speedWind from/ knotsBaromVisibWave heightAir tempDewpointWater temp
2014-Dec-18 20:00S 64°48' W 063°18'10 4.9 300 / 4981.6 1.3 0.5
2014-Dec-18 18:00S 64°42' W 063°36'3 1.3 270 / 5981.4 -0.2 0.7
2014-Dec-18 16:00S 64°42' W 063°42'7 1.6 350 / 3981.4 -0.6 0.5
2014-Dec-18 12:00S 64°48' W 063°36'0 0.0 350 / 5980.8 -0.8 1.0
2014-Dec-18 10:00S 64°48' W 063°36'0 0.0 260 / 3980.9 -1.4 1.1
2014-Dec-18 08:00S 64°48' W 063°36'0 0.0 160 / 1980.9 -1.0 1.0
2014-Dec-18 04:00S 64°48' W 063°36'0 0.0 040 / 3981.2 -1.2 1.1
2014-Dec-18 02:00S 64°48' W 063°36'3 1.3 210 / 5981.7 -1.0 1.0
2014-Dec-18 00:00S 64°48' W 063°30'8 3.9 300 / 6981.9 -0.8 1.2
2014-Dec-17 22:00S 64°54' W 063°42'7 3.3 280 / 6982.0 -0.6 0.7
2014-Dec-17 20:00S 64°48' W 063°36'10 4.9 300 / 7981.9 -0.9 0.8
2014-Dec-17 18:00S 64°42' W 063°54'8 3.9 240 / 7981.9 -0.2 1.3
2014-Dec-17 16:00S 64°48' W 064°06'3 1.3 350 / 11981.9 -1.0 1.0
2014-Dec-17 14:00S 64°48' W 064°12'5 2.6 250 / 11981.7 -0.6 1.3
2014-Dec-17 12:00S 64°48' W 064°24'15 7.7 240 / 10982.0 -0.9 1.3
2014-Dec-17 10:00S 64°48' W 065°00'6 3.0 280 / 15981.8 -0.5 0.6
2014-Dec-17 08:00S 64°42' W 065°00'22 5.5 220 / 11981.9 -0.2 0.7
2014-Dec-17 04:00S 65°00' W 065°30'10 4.8 250 / 7981.9 -0.4 0.4
2014-Dec-17 02:00S 65°06' W 065°48'14 7.1 220 / 5982.2 -0.4 0.6
2014-Dec-17 00:00S 65°18' W 066°06'16 7.8 250 / 9982.4 -0.4 0.5
2014-Dec-16 22:00S 65°30' W 066°30'23 5.8 300 / 5982.5 -0.6 1.3
2014-Dec-16 18:00S 65°48' W 067°06'111 6.1 090 / 5983.0 -0.7 1.2
2014-Dec-16 00:00S 67°24' W 069°24'6 3.0 010 / 19979.5 -0.7 1.8
2014-Dec-15 22:00S 67°18' W 069°24'13 6.4 020 / 22978.5 -0.2 1.8
2014-Dec-15 20:00S 67°06' W 069°12'14 7.0 020 / 23977.8 -0.6 1.8
2014-Dec-15 18:00S 66°54' W 068°54'9 4.6 020 / 21976.9 -0.7 1.8
2014-Dec-15 16:00S 66°48' W 068°36'28 7.0 010 / 20976.0 -0.8 1.8
2014-Dec-15 12:00S 66°24' W 068°00'12 6.0 020 / 15975.7 -1.0 1.8
2014-Dec-15 10:00S 66°24' W 067°30'11 5.7 360 / 17975.1 -1.2 1.7
2014-Dec-15 08:00S 66°30' W 067°06'19 2.4 050 / 27974.3 -1.3 1.7
2014-Dec-15 00:00S 66°48' W 066°48'2 1.2 360 / 14977.8 -0.4 1.7
2014-Dec-14 22:00S 66°48' W 066°42'0 0.0 340 / 3979.1 -1.6 1.3
2014-Dec-14 20:00S 66°48' W 066°42'0 0.0 200 / 12979.6 -2.5 1.4
2014-Dec-14 18:00S 66°48' W 066°42'0 0.0 130 / 9980.1 -2.0 1.4
2014-Dec-14 16:00S 66°48' W 066°42'0 0.0 200 / 5980.8 -2.0 1.2
2014-Dec-14 14:00S 66°48' W 066°42'0 0.0 180 / 11981.6 -2.5 1.6
2014-Dec-14 12:00S 66°48' W 066°42'0 0.0 210 / 4982.4 -0.6 1.5
2014-Dec-14 10:00S 66°48' W 066°42'6 3.2 340 / 8982.7 -0.8 1.4
2014-Dec-14 08:00S 66°42' W 066°48'15 3.8 010 / 18983.3 -1.4 1.4
2014-Dec-14 04:00S 66°30' W 067°12'8 3.8 050 / 13984.8 -1.9 1.5
2014-Dec-14 02:00S 66°24' W 067°00'14 7.0 020 / 12986.0 -2.1 1.7
2014-Dec-14 00:00S 66°12' W 066°42'94 3.9 040 / 7986.5 -1.0 1.6
2014-Dec-13 00:00S 65°06' W 064°00'6 3.0 220 / 10984.1 -2.2 1.5
2014-Dec-12 22:00S 65°00' W 064°00'10 4.8 230 / 17983.6 -1.6 1.4
2014-Dec-12 20:00S 64°54' W 063°42'10 5.1 240 / 21981.2 -0.3 0.6
2014-Dec-12 18:00S 64°54' W 063°18'5 2.5 290 / 12979.5 -0.1 0.3
2014-Dec-12 16:00S 64°54' W 063°06'3 1.3 310 / 10978.6 -0.2 1.0
2014-Dec-12 14:00S 64°54' W 063°12'0 0.0 050 / 4977.3 0.2 0.5
2014-Dec-12 08:00S 64°54' W 063°12'3 0.6 150 / 6973.6 -0.5 0.1
2014-Dec-12 04:00S 64°54' W 063°06'0 0.0 300 / 9970.6 -0.7 0.6
2014-Dec-12 02:00S 64°54' W 063°06'0 0.0 110 / 5969.3 -0.0 0.6
2014-Dec-12 00:00S 64°54' W 063°06'3 1.3 310 / 10967.5 -0.0 1.2
2014-Dec-11 22:00S 64°54' W 063°12'16 3.9 310 / 14965.8 -0.6 1.2
2014-Dec-11 18:00S 64°42' W 062°48'7 3.3 100 / 3963.2 1.4 0.9
2014-Dec-11 16:00S 64°36' W 062°54'3 1.3 190 / 11962.3 0.5 0.2
2014-Dec-11 14:00S 64°36' W 062°48'10 4.9 340 / 14961.3 -1.3 0.3
2014-Dec-11 12:00S 64°42' W 062°30'0 0.0 360 / 3960.8 0.5 0.4
2014-Dec-11 02:00S 64°42' W 062°30'3 1.3 320 / 5964.5 -1.0 0.5
2014-Dec-11 00:00S 64°42' W 062°36'6 3.0 230 / 4965.2 -0.7 0.6
2014-Dec-10 22:00S 64°36' W 062°36'6 3.0 250 / 6966.0 -0.1 0.3
2014-Dec-10 20:00S 64°42' W 062°36'3 0.3 110 / 2966.3 1.3 0.3
2014-Dec-10 12:00S 64°42' W 062°30'0 0.0 250 / 1966.5 0.4 0.3
2014-Dec-10 10:00S 64°42' W 062°30'0 0.0 090 / 5968.6 -0.3 0.2
2014-Dec-10 08:00S 64°42' W 062°30'0 0.0 170 / 10971.0 0.2 0.1
2014-Dec-10 00:00S 64°42' W 062°30'6 3.0 160 / 5981.2 -0.2 0.4
2014-Dec-09 22:00S 64°36' W 062°30'13 6.5 982.5 -0.1 0.2
2014-Dec-09 20:00S 64°24' W 062°18'5 2.6 160 / 18982.8 -0.1 -0.0
2014-Dec-09 18:00S 64°24' W 062°06'12 6.0 250 / 14981.7 0.1 0.8
2014-Dec-09 16:00S 64°36' W 062°06'6 3.0 170 / 6981.5 1.1 0.9
2014-Dec-09 14:00S 64°30' W 062°06'6 3.0 190 / 11980.9 1.0 0.8
2014-Dec-09 12:00S 64°36' W 062°06'0 0.0 130 / 20980.1 1.3 1.2
2014-Dec-09 10:00S 64°36' W 062°06'0 0.0 240 / 3980.5 0.6 0.9
2014-Dec-09 08:00S 64°36' W 062°06'0 0.0 100 / 6979.8 0.2 0.8
2014-Dec-09 02:00S 64°36' W 062°06'0 0.0 130 / 6979.2 0.3 1.0
2014-Dec-09 00:00S 64°36' W 062°06'0 0.0 290 / 3979.0 0.3 0.9
2014-Dec-08 22:00S 64°36' W 062°06'6 3.0 250 / 2978.6 0.6 1.1
2014-Dec-08 20:00S 64°30' W 062°06'   010 / 2978.2 0.6 0.7

Dump ship's entire track history